createdAt,value
2019-02-11T00:08:55.751Z,33.60
2019-02-11T00:12:01.309Z,38.23
2019-02-11T00:19:37.813Z,31.87
2019-02-11T00:25:09.423Z,34.07
2019-02-11T00:44:57.066Z,31.73
2019-02-11T00:54:42.126Z,34.03
2019-02-11T00:57:51.915Z,31.53
2019-02-11T01:00:52.522Z,32.00
2019-02-11T01:05:30.941Z,29.43
2019-02-11T01:06:47.784Z,32.53
2019-02-11T01:09:46.820Z,32.77
2019-02-11T01:32:13.742Z,26.67
2019-02-11T01:51:12.856Z,27.10
2019-02-11T01:58:37.617Z,31.13
2019-02-11T02:05:26.862Z,27.63
2019-02-11T02:08:13.300Z,25.87
2019-02-11T02:11:18.336Z,27.20
2019-02-11T02:20:38.489Z,29.80
2019-02-11T02:26:18.136Z,25.07
2019-02-11T02:50:51.182Z,28.07
2019-02-11T02:53:33.204Z,26.37
2019-02-11T02:59:56.606Z,27.73
2019-02-11T03:05:38.420Z,23.57
2019-02-11T03:09:08.200Z,25.37
2019-02-11T03:14:37.532Z,25.57
2019-02-11T03:27:40.152Z,23.93
2019-02-11T04:15:45.933Z,23.50
2019-02-11T04:18:53.100Z,25.57
2019-02-11T04:22:23.089Z,20.43
2019-02-11T07:33:41.835Z,6.57
2019-02-11T07:46:35.254Z,23.67
2019-02-11T07:56:07.646Z,9.00
2019-02-11T11:01:27.355Z,15.23
2019-02-11T11:10:47.477Z,12.07
2019-02-11T11:16:50.557Z,6.83
2019-02-11T11:19:17.378Z,14.30
2019-02-11T11:21:48.270Z,10.27
2019-02-11T11:24:19.195Z,16.77
2019-02-11T11:26:50.080Z,6.07
2019-02-11T11:29:20.996Z,14.00
2019-02-11T11:31:51.892Z,12.47
2019-02-11T11:34:22.908Z,12.40
2019-02-11T11:36:53.807Z,12.47
2019-02-11T11:39:25.518Z,8.17
2019-02-11T11:41:56.680Z,10.73
2019-02-11T11:44:27.909Z,12.27
2019-02-11T11:46:59.413Z,9.80
2019-02-11T11:49:30.543Z,13.13
2019-02-11T11:52:01.716Z,26.93
2019-02-11T11:54:32.918Z,17.67
2019-02-11T11:57:04.556Z,17.40
2019-02-11T11:59:35.735Z,11.73
2019-02-11T12:02:07.153Z,9.17
2019-02-11T12:04:38.534Z,7.20
2019-02-11T12:07:13.503Z,5.53
2019-02-11T12:09:44.558Z,8.67
2019-02-11T12:12:17.599Z,26.87
2019-02-11T12:14:48.803Z,6.73
2019-02-11T12:17:19.799Z,9.13
2019-02-11T12:19:50.970Z,6.20
2019-02-11T12:22:23.056Z,8.37
2019-02-11T12:24:54.331Z,13.07
2019-02-11T12:27:25.404Z,8.17
2019-02-11T12:29:56.600Z,13.27
2019-02-11T12:32:27.742Z,14.80
2019-02-11T12:34:59.083Z,17.10
2019-02-11T12:37:30.205Z,14.10
2019-02-11T12:40:01.362Z,13.77
2019-02-11T12:42:32.476Z,16.47
2019-02-11T12:45:04.105Z,11.47
2019-02-11T12:47:35.351Z,18.80
2019-02-11T12:50:09.592Z,16.13
2019-02-11T12:52:41.618Z,10.73
2019-02-11T12:55:16.477Z,7.93
2019-02-11T12:57:47.475Z,12.17
2019-02-11T13:00:21.349Z,15.70
2019-02-11T13:02:52.228Z,11.80
2019-02-11T13:05:40.222Z,20.40
2019-02-11T13:07:55.773Z,16.10
2019-02-11T13:10:26.710Z,26.30
2019-02-11T13:12:57.604Z,10.97
2019-02-11T13:15:53.906Z,15.20
2019-02-11T13:18:01.217Z,15.10
2019-02-11T13:20:32.255Z,11.77
2019-02-11T13:23:03.219Z,23.80
2019-02-11T13:25:34.134Z,11.80
2019-02-11T13:28:05.032Z,13.80
2019-02-11T13:30:35.957Z,11.63
2019-02-11T13:33:07.226Z,15.23
2019-02-11T13:35:38.238Z,20.00
2019-02-11T13:38:09.145Z,38.63
2019-02-11T13:40:40.054Z,28.63
2019-02-11T13:43:10.983Z,29.07
2019-02-11T13:45:41.904Z,26.07
2019-02-11T13:48:12.803Z,33.63
2019-02-11T13:50:43.832Z,35.37
2019-02-11T13:53:14.836Z,59.40
2019-02-11T13:55:45.825Z,29.57
2019-02-11T13:58:16.723Z,26.50
2019-02-11T14:00:50.255Z,26.17
2019-02-11T14:03:22.138Z,25.97
2019-02-11T14:05:53.244Z,13.87
2019-02-11T14:08:24.192Z,31.30
2019-02-11T14:10:55.198Z,32.33
2019-02-11T14:13:26.103Z,31.73
2019-02-11T14:15:57.043Z,33.97
2019-02-11T14:18:27.937Z,30.20
2019-02-11T14:20:58.962Z,19.30
2019-02-11T14:23:29.862Z,16.73
2019-02-11T14:26:00.794Z,22.57
2019-02-11T14:28:31.694Z,20.63
2019-02-11T14:31:02.622Z,13.40
2019-02-11T14:33:33.527Z,20.97
2019-02-11T14:36:05.690Z,17.80
2019-02-11T14:38:36.744Z,15.93
2019-02-11T14:41:07.724Z,18.97
2019-02-11T14:43:38.619Z,27.27
2019-02-11T14:46:09.555Z,21.23
2019-02-11T14:48:40.452Z,6.37
2019-02-11T14:51:11.463Z,6.07
2019-02-11T14:53:42.421Z,15.67
2019-02-11T14:56:13.349Z,26.70
2019-02-11T14:58:44.326Z,39.07
2019-02-11T15:01:15.253Z,23.43
2019-02-11T15:03:47.860Z,45.73
2019-02-11T15:06:18.981Z,41.27
2019-02-11T15:08:50.386Z,34.80
2019-02-11T15:11:21.321Z,30.40
2019-02-11T15:13:52.228Z,16.03
2019-02-11T15:16:23.162Z,31.03
2019-02-11T15:18:54.061Z,9.77
2019-02-11T15:21:25.030Z,15.77
2019-02-11T15:23:55.934Z,30.00
2019-02-11T15:26:26.874Z,30.90
2019-02-11T15:28:57.774Z,17.47
2019-02-11T15:31:28.696Z,9.30
2019-02-11T15:33:59.593Z,16.73
2019-02-11T15:36:30.551Z,17.53
2019-02-11T15:39:01.463Z,14.60
2019-02-11T15:41:32.482Z,44.20
2019-02-11T15:44:03.380Z,19.57
2019-02-11T15:46:34.315Z,19.77
2019-02-11T15:49:05.216Z,13.23
2019-02-11T15:51:36.283Z,18.00
2019-02-11T15:54:07.167Z,9.40
2019-02-11T15:56:38.165Z,11.13
2019-02-11T15:59:09.311Z,7.97
2019-02-11T16:01:40.261Z,11.43
2019-02-11T16:04:12.223Z,11.20
2019-02-11T16:06:43.324Z,5.97
2019-02-11T16:09:14.234Z,11.80
2019-02-11T16:11:45.176Z,15.90
2019-02-11T16:14:16.142Z,17.13
2019-02-11T16:16:47.084Z,20.50
2019-02-11T16:19:17.976Z,16.90
2019-02-11T16:21:48.939Z,23.47
2019-02-11T16:24:19.843Z,24.57
2019-02-11T16:26:50.779Z,14.87
2019-02-11T16:29:21.679Z,22.03
2019-02-11T16:32:00.559Z,29.83
2019-02-11T16:34:25.317Z,22.77
2019-02-11T16:36:56.623Z,19.03
2019-02-11T16:39:27.540Z,41.03
2019-02-11T16:41:58.453Z,20.77
2019-02-11T16:44:29.365Z,45.03
2019-02-11T16:47:00.403Z,55.07
2019-02-11T16:49:31.311Z,44.90
2019-02-11T16:52:02.280Z,30.43
2019-02-11T16:54:33.192Z,29.73
2019-02-11T16:57:04.130Z,30.77
2019-02-11T16:59:35.036Z,39.33
2019-02-11T17:02:05.960Z,42.27
2019-02-11T17:04:36.857Z,51.73
2019-02-11T17:07:07.828Z,33.07
2019-02-11T17:09:38.808Z,43.03
2019-02-11T17:12:09.741Z,30.47
2019-02-11T17:14:40.642Z,38.30
2019-02-11T17:17:11.573Z,38.93
2019-02-11T17:19:42.476Z,39.13
2019-02-11T17:22:13.433Z,37.50
2019-02-11T17:24:44.353Z,41.00
2019-02-11T17:27:15.271Z,20.83
2019-02-11T17:29:46.185Z,24.80
2019-02-11T17:32:17.128Z,15.77
2019-02-11T17:34:48.050Z,8.20
2019-02-11T17:37:19.004Z,12.00
2019-02-11T17:39:49.981Z,9.57
2019-02-11T17:42:21.674Z,14.40
2019-02-11T17:44:53.257Z,13.17
2019-02-11T17:47:24.302Z,5.20
2019-02-11T17:49:55.520Z,8.07
2019-02-11T17:52:26.615Z,8.10
2019-02-11T17:54:58.628Z,4.93
2019-02-11T17:57:29.786Z,7.50
2019-02-11T18:00:00.818Z,6.30
2019-02-11T18:02:31.876Z,29.77
2019-02-11T18:05:02.886Z,21.53
2019-02-11T18:07:34.128Z,11.07
2019-02-11T18:10:06.301Z,22.47
2019-02-11T18:12:37.520Z,17.53
2019-02-11T18:15:11.989Z,18.97
2019-02-11T18:17:43.255Z,52.10
2019-02-11T18:20:14.378Z,29.93
2019-02-11T18:22:45.908Z,14.87
2019-02-11T18:25:16.962Z,11.77
2019-02-11T18:27:48.238Z,13.13
2019-02-11T18:30:19.968Z,20.67
2019-02-11T18:32:51.225Z,10.27
2019-02-11T18:35:23.755Z,10.90
2019-02-11T18:37:55.809Z,11.57
2019-02-11T18:40:27.013Z,10.93
2019-02-11T18:42:58.290Z,18.60
2019-02-11T18:45:29.503Z,9.57
2019-02-11T18:48:00.753Z,10.93
2019-02-11T18:50:31.775Z,7.97
2019-02-11T18:53:02.848Z,9.80
2019-02-11T18:55:34.096Z,7.67
2019-02-11T18:58:05.119Z,10.57
2019-02-11T19:00:36.039Z,9.97
2019-02-11T19:03:07.129Z,6.30
2019-02-11T19:05:38.142Z,11.77
2019-02-11T19:08:09.099Z,12.47
2019-02-11T19:10:40.093Z,10.07
2019-02-11T19:13:11.133Z,7.80
2019-02-11T19:15:42.191Z,7.10
2019-02-11T19:18:13.226Z,6.87
2019-02-11T19:20:44.412Z,7.30
2019-02-11T19:23:15.495Z,6.83
2019-02-11T19:25:46.512Z,8.43
2019-02-11T19:28:17.495Z,11.80
2019-02-11T19:30:48.502Z,6.87
2019-02-11T19:33:19.608Z,5.33
2019-02-11T19:35:50.600Z,4.97
2019-02-11T19:38:21.586Z,6.27
2019-02-11T19:40:52.574Z,9.07
2019-02-11T19:43:23.683Z,4.53
2019-02-11T19:45:54.645Z,6.07
2019-02-11T19:48:25.955Z,6.17
2019-02-11T19:50:56.874Z,4.13
2019-02-11T19:53:27.963Z,6.07
2019-02-11T19:55:59.658Z,7.27
2019-02-11T19:58:30.662Z,6.93
2019-02-11T20:01:01.838Z,5.33
2019-02-11T20:03:32.871Z,5.43
2019-02-11T20:06:03.822Z,6.37
2019-02-11T20:08:34.862Z,6.97
2019-02-11T20:11:05.800Z,8.30
2019-02-11T20:13:36.774Z,3.73
2019-02-11T20:16:07.659Z,4.83
2019-02-11T20:18:38.578Z,7.53
2019-02-11T20:21:09.474Z,5.30
2019-02-11T20:23:40.418Z,5.97
2019-02-11T20:26:11.372Z,8.20
2019-02-11T20:28:42.283Z,7.93
2019-02-11T20:31:13.172Z,7.03
2019-02-11T20:33:44.101Z,7.53
2019-02-11T20:36:14.994Z,7.77
2019-02-11T20:38:45.969Z,4.87
2019-02-11T20:41:16.868Z,3.93
2019-02-11T20:43:47.788Z,4.50
2019-02-11T20:46:18.674Z,3.97
2019-02-11T20:48:49.753Z,3.13
2019-02-11T20:51:20.661Z,4.13
2019-02-11T20:53:51.628Z,5.80
2019-02-11T20:56:22.522Z,6.13
2019-02-11T20:58:53.438Z,4.33
2019-02-11T21:01:24.406Z,19.60
2019-02-11T21:03:55.343Z,14.47
2019-02-11T21:06:26.233Z,10.10
2019-02-11T21:08:57.241Z,4.17
2019-02-11T21:11:28.127Z,4.53
2019-02-11T21:13:59.068Z,6.97
2019-02-11T21:16:29.957Z,4.60
2019-02-11T21:19:00.880Z,3.93
2019-02-11T21:21:31.763Z,4.90
2019-02-11T21:24:02.795Z,5.27
2019-02-11T21:26:33.762Z,4.03
2019-02-11T21:29:04.689Z,6.00
2019-02-11T21:31:36.934Z,5.40
2019-02-11T21:34:08.056Z,7.77
2019-02-11T21:36:38.946Z,10.03
2019-02-11T21:39:10.252Z,12.33
2019-02-11T21:41:41.144Z,8.37
2019-02-11T21:44:12.057Z,7.60
2019-02-11T21:46:42.957Z,4.30
2019-02-11T21:49:13.875Z,3.57
2019-02-11T21:51:44.770Z,7.67
2019-02-11T21:54:15.748Z,5.27
2019-02-11T21:56:47.438Z,5.53
2019-02-11T21:59:18.441Z,3.77
2019-02-11T22:01:49.339Z,4.80
2019-02-11T22:04:20.334Z,5.17
2019-02-11T22:06:51.242Z,3.87
2019-02-11T22:09:22.182Z,3.40
2019-02-11T22:11:53.076Z,5.13
2019-02-11T22:14:23.998Z,5.33
2019-02-11T22:16:54.886Z,8.13
2019-02-11T22:19:25.814Z,7.20
2019-02-11T22:21:56.690Z,8.73
2019-02-11T22:24:27.866Z,8.70
2019-02-11T22:26:58.749Z,7.23
2019-02-11T22:29:29.668Z,7.27
2019-02-11T22:32:00.569Z,6.30
2019-02-11T22:34:32.995Z,7.97
2019-02-11T22:37:07.498Z,6.53
2019-02-11T22:39:38.781Z,7.03
2019-02-11T22:42:09.673Z,6.17
2019-02-11T22:44:40.827Z,7.40
2019-02-11T22:47:13.823Z,6.57
2019-02-11T22:49:46.863Z,6.70
2019-02-11T22:52:17.754Z,7.70
2019-02-11T22:54:48.965Z,5.57
2019-02-11T22:57:20.681Z,9.13
2019-02-11T22:59:51.608Z,6.37
2019-02-11T23:02:22.494Z,9.57
2019-02-11T23:04:53.428Z,9.87
2019-02-11T23:07:24.320Z,7.20
2019-02-11T23:09:55.254Z,8.60
2019-02-11T23:12:26.138Z,7.53
2019-02-11T23:14:57.059Z,8.60
2019-02-11T23:17:27.962Z,12.83
2019-02-11T23:19:58.950Z,10.70
2019-02-11T23:22:29.850Z,12.43
2019-02-11T23:25:00.900Z,7.40
2019-02-11T23:27:32.161Z,7.57
2019-02-11T23:30:03.266Z,5.53
2019-02-11T23:32:34.147Z,6.73
2019-02-11T23:35:05.971Z,9.97
2019-02-11T23:37:36.890Z,8.07
2019-02-11T23:40:09.640Z,8.17
2019-02-11T23:42:46.799Z,7.23
2019-02-11T23:45:17.721Z,8.37
2019-02-11T23:47:48.889Z,8.17
2019-02-11T23:50:19.808Z,5.57
2019-02-11T23:52:50.701Z,6.93
2019-02-11T23:55:21.646Z,6.47
2019-02-11T23:57:52.531Z,8.67
